createdAt,value
2022-11-25T00:00:37.479Z,1010.51
2022-11-25T00:01:37.469Z,1010.53
2022-11-25T00:02:37.573Z,1010.53
2022-11-25T00:03:37.539Z,1010.51
2022-11-25T00:04:37.752Z,1010.54
2022-11-25T00:05:37.452Z,1010.52
2022-11-25T00:06:37.454Z,1010.53
2022-11-25T00:07:37.501Z,1010.54
2022-11-25T00:08:37.434Z,1010.50
2022-11-25T00:09:37.426Z,1010.51
2022-11-25T00:10:37.422Z,1010.52
2022-11-25T00:11:37.424Z,1010.52
2022-11-25T00:12:37.496Z,1010.53
2022-11-25T00:13:37.414Z,1010.53
2022-11-25T00:14:37.729Z,1010.52
2022-11-25T00:15:37.411Z,1010.51
2022-11-25T00:16:37.439Z,1010.49
2022-11-25T00:17:37.412Z,1010.48
2022-11-25T00:18:37.424Z,1010.44
2022-11-25T00:19:37.393Z,1010.46
2022-11-25T00:20:37.405Z,1010.43
2022-11-25T00:21:37.400Z,1010.46
2022-11-25T00:22:37.388Z,1010.45
2022-11-25T00:23:37.392Z,1010.44
2022-11-25T00:24:37.648Z,1010.41
2022-11-25T00:25:37.375Z,1010.45
2022-11-25T00:26:37.366Z,1010.48
2022-11-25T00:27:37.391Z,1010.47
2022-11-25T00:28:37.364Z,1010.47
2022-11-25T00:29:37.368Z,1010.46
2022-11-25T00:30:37.351Z,1010.49
2022-11-25T00:31:37.391Z,1010.50
2022-11-25T00:32:37.357Z,1010.57
2022-11-25T00:33:37.363Z,1010.57
2022-11-25T00:34:37.537Z,1010.52
2022-11-25T00:35:37.332Z,1010.58
2022-11-25T00:36:37.326Z,1010.57
2022-11-25T00:37:37.334Z,1010.59
2022-11-25T00:38:37.346Z,1010.59
2022-11-25T00:39:37.321Z,1010.61
2022-11-25T00:40:37.318Z,1010.59
2022-11-25T00:41:37.322Z,1010.56
2022-11-25T00:42:37.317Z,1010.59
2022-11-25T00:43:37.325Z,1010.58
2022-11-25T00:44:38.305Z,1010.56
2022-11-25T00:45:37.329Z,1010.54
2022-11-25T00:46:37.300Z,1010.54
2022-11-25T00:47:37.290Z,1010.53
2022-11-25T00:48:37.298Z,1010.58
2022-11-25T00:49:37.315Z,1010.54
2022-11-25T00:50:37.289Z,1010.59
2022-11-25T00:51:37.290Z,1010.59
2022-11-25T00:52:37.273Z,1010.58
2022-11-25T00:53:37.284Z,1010.59
2022-11-25T00:54:37.547Z,1010.64
2022-11-25T00:55:37.278Z,1010.64
2022-11-25T00:56:37.265Z,1010.63
2022-11-25T00:57:37.258Z,1010.60
2022-11-25T00:58:37.252Z,1010.59
2022-11-25T00:59:37.283Z,1010.63
2022-11-25T01:00:37.264Z,1010.58
2022-11-25T01:01:37.325Z,1010.60
2022-11-25T01:02:37.308Z,1010.59
2022-11-25T01:03:37.232Z,1010.60
2022-11-25T01:04:37.566Z,1010.55
2022-11-25T01:05:37.223Z,1010.60
2022-11-25T01:06:37.262Z,1010.53
2022-11-25T01:07:37.250Z,1010.51
2022-11-25T01:08:37.223Z,1010.58
2022-11-25T01:09:37.222Z,1010.57
2022-11-25T01:10:37.227Z,1010.56
2022-11-25T01:11:37.233Z,1010.53
2022-11-25T01:12:37.201Z,1010.54
2022-11-25T01:13:37.216Z,1010.58
2022-11-25T01:14:37.458Z,1010.55
2022-11-25T01:15:37.195Z,1010.54
2022-11-25T01:16:37.325Z,1010.59
2022-11-25T01:17:37.205Z,1010.51
2022-11-25T01:18:37.182Z,1010.58
2022-11-25T01:19:37.187Z,1010.52
2022-11-25T01:20:37.180Z,1010.54
2022-11-25T01:21:37.185Z,1010.55
2022-11-25T01:22:37.180Z,1010.57
2022-11-25T01:23:37.170Z,1010.54
2022-11-25T01:24:37.541Z,1010.53
2022-11-25T01:25:37.152Z,1010.52
2022-11-25T01:26:37.194Z,1010.53
2022-11-25T01:27:37.144Z,1010.51
2022-11-25T01:28:37.148Z,1010.53
2022-11-25T01:29:37.149Z,1010.53
2022-11-25T01:30:41.143Z,1010.51
2022-11-25T01:31:37.193Z,1010.48
2022-11-25T01:32:37.163Z,1010.44
2022-11-25T01:33:37.124Z,1010.47
2022-11-25T01:34:37.401Z,1010.48
2022-11-25T01:35:37.121Z,1010.49
2022-11-25T01:36:37.126Z,1010.48
2022-11-25T01:37:37.125Z,1010.43
2022-11-25T01:38:37.117Z,1010.46
2022-11-25T01:39:37.119Z,1010.48
2022-11-25T01:40:37.101Z,1010.49
2022-11-25T01:41:37.146Z,1010.44
2022-11-25T01:42:37.104Z,1010.45
2022-11-25T01:43:37.095Z,1010.45
2022-11-25T01:44:37.332Z,1010.48
2022-11-25T01:45:37.123Z,1010.45
2022-11-25T01:46:37.082Z,1010.48
2022-11-25T01:47:37.089Z,1010.49
2022-11-25T01:48:37.073Z,1010.50
2022-11-25T01:49:37.088Z,1010.46
2022-11-25T01:50:37.092Z,1010.49
2022-11-25T01:51:37.063Z,1010.44
2022-11-25T01:52:37.073Z,1010.43
2022-11-25T01:53:37.079Z,1010.48
2022-11-25T01:54:37.213Z,1010.47
2022-11-25T01:55:37.051Z,1010.46
2022-11-25T01:56:37.062Z,1010.44
2022-11-25T01:57:37.055Z,1010.37
2022-11-25T01:58:37.040Z,1010.41
2022-11-25T01:59:37.054Z,1010.37
2022-11-25T02:00:37.064Z,1010.35
2022-11-25T02:01:37.086Z,1010.31
2022-11-25T02:02:37.049Z,1010.29
2022-11-25T02:03:37.047Z,1010.26
2022-11-25T02:04:37.272Z,1010.25
2022-11-25T02:05:37.021Z,1010.27
2022-11-25T02:06:37.031Z,1010.23
2022-11-25T02:07:37.051Z,1010.20
2022-11-25T02:08:37.011Z,1010.16
2022-11-25T02:09:37.056Z,1010.14
2022-11-25T02:10:37.006Z,1010.11
2022-11-25T02:11:37.006Z,1010.16
2022-11-25T02:12:37.007Z,1010.17
2022-11-25T02:13:36.989Z,1010.19
2022-11-25T02:14:37.186Z,1010.20
2022-11-25T02:15:37.006Z,1010.21
2022-11-25T02:16:37.104Z,1010.21
2022-11-25T02:17:36.990Z,1010.15
2022-11-25T02:18:36.970Z,1010.17
2022-11-25T02:19:36.988Z,1010.22
2022-11-25T04:47:50.983Z,1010.62
2022-11-25T04:48:50.544Z,1010.62
2022-11-25T04:49:50.606Z,1010.61
2022-11-25T04:50:50.538Z,1010.63
2022-11-25T04:51:50.136Z,1010.55
2022-11-25T04:52:49.949Z,1010.62
2022-11-25T04:53:49.736Z,1010.57
2022-11-25T04:54:53.546Z,1010.59
2022-11-25T04:55:50.387Z,1010.60
2022-11-25T04:56:50.341Z,1010.60
2022-11-25T04:57:50.437Z,1010.64
2022-11-25T05:27:40.201Z,1010.82
2022-11-25T05:28:40.275Z,1010.81
2022-11-25T05:32:45.904Z,1010.84
2022-11-25T05:33:45.934Z,1010.88
2022-11-25T05:34:45.786Z,1010.88
2022-11-25T05:35:46.060Z,1010.90
2022-11-25T05:36:45.361Z,1010.89
2022-11-25T05:58:09.239Z,1010.84
2022-11-25T05:59:09.114Z,1010.87
2022-11-25T06:00:09.274Z,1010.86
2022-11-25T06:01:09.020Z,1010.85
2022-11-25T06:02:09.740Z,1010.85
2022-11-25T06:03:09.361Z,1010.78
2022-11-25T06:04:08.927Z,1010.76
2022-11-25T06:05:08.954Z,1010.77
2022-11-25T06:06:09.200Z,1010.76
2022-11-25T06:07:09.275Z,1010.76
2022-11-25T06:08:08.424Z,1010.77
2022-11-25T06:09:08.577Z,1010.75
2022-11-25T06:10:08.359Z,1010.76
2022-11-25T06:11:09.153Z,1010.74
2022-11-25T06:12:09.191Z,1010.81
2022-11-25T06:14:59.436Z,1010.83
2022-11-25T06:17:38.565Z,1010.92
2022-11-25T06:19:01.087Z,1010.91
2022-11-25T06:21:32.832Z,1010.92
2022-11-25T06:22:29.773Z,1010.91
2022-11-25T06:23:29.745Z,1010.88
2022-11-25T06:24:29.728Z,1010.92
2022-11-25T06:25:29.737Z,1010.89
2022-11-25T06:26:29.729Z,1010.88
2022-11-25T06:27:44.243Z,1010.89
2022-11-25T06:28:29.721Z,1010.86
2022-11-25T06:29:29.716Z,1010.82
2022-11-25T06:30:29.717Z,1010.90
2022-11-25T06:31:29.790Z,1010.82
2022-11-25T06:32:32.987Z,1010.88
2022-11-25T06:33:29.702Z,1010.87
2022-11-25T06:34:30.538Z,1010.84
2022-11-25T06:35:30.515Z,1010.95
2022-11-25T06:36:29.700Z,1010.90
2022-11-25T06:37:30.480Z,1010.94
2022-11-25T06:38:30.519Z,1010.93
2022-11-25T06:39:30.509Z,1010.95
2022-11-25T06:40:30.181Z,1010.90
2022-11-25T06:41:29.683Z,1010.93
2022-11-25T06:42:29.659Z,1010.92
2022-11-25T06:43:29.679Z,1010.94
2022-11-25T06:44:29.663Z,1010.96
2022-11-25T06:45:29.645Z,1010.98
2022-11-25T06:46:29.749Z,1011.04
2022-11-25T06:47:29.648Z,1011.10
2022-11-25T06:48:29.642Z,1011.15
2022-11-25T06:49:29.652Z,1011.05
2022-11-25T06:50:29.639Z,1011.09
2022-11-25T06:51:29.641Z,1011.11
2022-11-25T06:52:29.630Z,1011.17
2022-11-25T06:53:29.620Z,1011.17
2022-11-25T06:54:29.629Z,1011.19
2022-11-25T06:55:29.624Z,1011.19
2022-11-25T06:56:29.612Z,1011.20
2022-11-25T06:57:29.615Z,1011.23
2022-11-25T06:58:35.714Z,1011.23
2022-11-25T06:59:29.623Z,1011.18
2022-11-25T07:00:29.682Z,1011.21
2022-11-25T07:01:29.684Z,1011.25
2022-11-25T07:02:32.304Z,1011.25
2022-11-25T07:03:29.594Z,1011.29
2022-11-25T07:04:29.578Z,1011.30
2022-11-25T07:05:29.598Z,1011.31
2022-11-25T07:06:29.574Z,1011.32
2022-11-25T07:07:29.621Z,1011.32
2022-11-25T07:08:33.992Z,1011.34
2022-11-25T07:09:29.584Z,1011.39
2022-11-25T07:10:29.689Z,1011.35
2022-11-25T07:11:29.572Z,1011.42
2022-11-25T07:12:29.567Z,1011.39
2022-11-25T07:13:29.571Z,1011.44
2022-11-25T07:14:29.568Z,1011.43
2022-11-25T07:15:29.628Z,1011.48
2022-11-25T07:16:29.585Z,1011.47
2022-11-25T07:17:29.591Z,1011.53
2022-11-25T07:18:29.573Z,1011.55
2022-11-25T07:19:29.577Z,1011.52
2022-11-25T07:20:29.536Z,1011.56
2022-11-25T07:21:29.569Z,1011.57
2022-11-25T07:22:29.534Z,1011.52
2022-11-25T07:23:29.518Z,1011.54
2022-11-25T07:24:29.530Z,1011.49
2022-11-25T07:25:30.919Z,1011.54
2022-11-25T07:26:29.535Z,1011.52
2022-11-25T07:27:29.583Z,1011.55
2022-11-25T07:28:29.537Z,1011.59
2022-11-25T07:29:51.940Z,1011.55
2022-11-25T07:31:21.779Z,1011.52
2022-11-25T07:31:32.514Z,1011.50
2022-11-25T07:32:29.518Z,1011.49
2022-11-25T07:33:29.561Z,1011.51
2022-11-25T07:34:29.563Z,1011.53
2022-11-25T07:35:29.513Z,1011.52
2022-11-25T07:36:29.510Z,1011.51
2022-11-25T07:37:29.504Z,1011.53
2022-11-25T07:38:29.494Z,1011.51
2022-11-25T07:39:29.493Z,1011.60
2022-11-25T07:40:29.484Z,1011.55
2022-11-25T07:41:29.499Z,1011.58
2022-11-25T07:42:29.456Z,1011.60
2022-11-25T07:43:29.487Z,1011.55
2022-11-25T07:44:29.487Z,1011.56
2022-11-25T07:45:29.511Z,1011.58
2022-11-25T07:46:29.505Z,1011.51
2022-11-25T07:47:29.450Z,1011.50
2022-11-25T07:48:29.441Z,1011.50
2022-11-25T07:49:29.471Z,1011.47
2022-11-25T07:50:29.498Z,1011.47
2022-11-25T07:51:29.589Z,1011.49
2022-11-25T07:52:30.059Z,1011.46
2022-11-25T07:53:29.560Z,1011.44
2022-11-25T07:54:29.452Z,1011.47
2022-11-25T07:55:29.428Z,1011.49
2022-11-25T07:56:29.419Z,1011.41
2022-11-25T07:57:29.422Z,1011.45
2022-11-25T07:58:29.428Z,1011.42
2022-11-25T07:59:29.438Z,1011.45
2022-11-25T08:00:29.442Z,1011.44
2022-11-25T08:01:29.498Z,1011.43
2022-11-25T08:02:29.463Z,1011.45
2022-11-25T08:03:29.390Z,1011.47
2022-11-25T08:04:29.427Z,1011.46
2022-11-25T08:05:29.386Z,1011.47
2022-11-25T08:06:29.441Z,1011.51
2022-11-25T08:07:34.905Z,1011.49
2022-11-25T08:08:29.384Z,1011.55
2022-11-25T08:09:29.414Z,1011.53
2022-11-25T08:10:32.679Z,1011.58
2022-11-25T08:11:29.378Z,1011.57
2022-11-25T08:12:29.406Z,1011.64
2022-11-25T08:13:29.377Z,1011.65
2022-11-25T08:14:29.413Z,1011.65
2022-11-25T08:15:29.479Z,1011.67
2022-11-25T08:16:29.407Z,1011.66
2022-11-25T08:17:29.348Z,1011.68
2022-11-25T08:18:29.350Z,1011.70
2022-11-25T08:19:31.603Z,1011.74
2022-11-25T08:20:29.334Z,1011.73
2022-11-25T08:21:36.861Z,1011.73
2022-11-25T08:22:29.383Z,1011.76
2022-11-25T08:23:29.335Z,1011.73
2022-11-25T08:24:29.330Z,1011.78
2022-11-25T08:25:29.321Z,1011.72
2022-11-25T08:26:29.321Z,1011.78
2022-11-25T08:27:29.349Z,1011.80
2022-11-25T08:28:29.305Z,1011.80
2022-11-25T08:29:29.309Z,1011.77
2022-11-25T08:30:29.302Z,1011.79
2022-11-25T08:31:29.325Z,1011.77
2022-11-25T08:32:29.305Z,1011.80
2022-11-25T08:33:29.296Z,1011.82
2022-11-25T08:34:29.295Z,1011.85
2022-11-25T08:35:29.310Z,1011.81
2022-11-25T08:36:29.299Z,1011.78
2022-11-25T08:37:29.301Z,1011.78
2022-11-25T08:38:29.289Z,1011.84
2022-11-25T08:39:51.154Z,1011.84
2022-11-25T08:40:29.303Z,1011.81
2022-11-25T08:41:29.303Z,1011.83
2022-11-25T08:42:29.304Z,1011.78
2022-11-25T08:43:29.790Z,1011.86
2022-11-25T08:44:29.271Z,1011.79
2022-11-25T08:45:29.287Z,1011.81
2022-11-25T08:46:29.376Z,1011.81
2022-11-25T08:47:29.283Z,1011.80
2022-11-25T08:48:29.267Z,1011.84
2022-11-25T08:49:29.278Z,1011.76
2022-11-25T08:50:29.271Z,1011.77
2022-11-25T08:51:29.275Z,1011.77
2022-11-25T08:52:29.270Z,1011.77
2022-11-25T08:53:29.280Z,1011.79
2022-11-25T08:54:29.275Z,1011.83
2022-11-25T08:55:29.252Z,1011.79
2022-11-25T08:56:29.267Z,1011.82
2022-11-25T08:57:29.277Z,1011.85
2022-11-25T08:58:29.270Z,1011.84
2022-11-25T08:59:29.249Z,1011.84
2022-11-25T09:00:29.255Z,1011.82
2022-11-25T09:01:29.305Z,1011.88
2022-11-25T09:02:29.310Z,1011.88
2022-11-25T09:03:29.298Z,1011.90
2022-11-25T09:04:29.238Z,1011.85
2022-11-25T09:05:29.246Z,1011.83
2022-11-25T09:06:29.253Z,1011.82
2022-11-25T09:07:30.810Z,1011.85
2022-11-25T09:08:29.253Z,1011.84
2022-11-25T09:09:29.237Z,1011.86
2022-11-25T09:10:29.223Z,1011.81
2022-11-25T09:11:29.324Z,1011.85
2022-11-25T09:12:29.232Z,1011.85
2022-11-25T09:13:29.230Z,1011.85
2022-11-25T09:14:29.307Z,1011.83
2022-11-25T09:15:29.224Z,1011.87
2022-11-25T09:16:29.264Z,1011.87
2022-11-25T09:17:29.211Z,1011.89
2022-11-25T09:18:29.220Z,1011.89
2022-11-25T09:19:29.233Z,1011.90
2022-11-25T09:20:29.204Z,1011.91
2022-11-25T09:21:29.205Z,1011.95
2022-11-25T09:22:29.225Z,1011.97
2022-11-25T09:23:29.196Z,1011.98
2022-11-25T09:24:29.225Z,1011.95
2022-11-25T09:25:29.210Z,1011.94
2022-11-25T09:26:29.190Z,1011.92
2022-11-25T09:27:29.201Z,1011.92
2022-11-25T09:28:29.197Z,1011.93
2022-11-25T09:29:29.207Z,1011.90
2022-11-25T09:30:29.194Z,1011.97
2022-11-25T09:31:29.361Z,1011.96
2022-11-25T09:32:29.176Z,1011.96
2022-11-25T09:33:29.175Z,1011.95
2022-11-25T09:34:29.191Z,1011.97
2022-11-25T09:35:29.215Z,1011.92
2022-11-25T09:36:29.205Z,1011.96
2022-11-25T09:37:29.183Z,1011.99
2022-11-25T09:38:29.178Z,1011.93
2022-11-25T09:39:29.179Z,1011.95
2022-11-25T09:40:29.164Z,1011.95
2022-11-25T09:41:29.179Z,1011.93
2022-11-25T09:42:29.204Z,1012.00
2022-11-25T09:43:29.171Z,1011.97
2022-11-25T09:44:29.157Z,1011.93
2022-11-25T09:45:29.164Z,1011.94
2022-11-25T09:46:29.221Z,1011.88
2022-11-25T09:47:29.176Z,1011.87
2022-11-25T09:48:29.169Z,1011.84
2022-11-25T09:49:29.162Z,1011.88
2022-11-25T09:50:29.143Z,1011.82
2022-11-25T09:51:29.155Z,1011.81
2022-11-25T09:52:29.168Z,1011.74
2022-11-25T09:53:29.155Z,1011.71
2022-11-25T09:54:29.161Z,1011.72
2022-11-25T09:55:29.147Z,1011.72
2022-11-25T09:56:29.134Z,1011.69
2022-11-25T09:57:29.147Z,1011.64
2022-11-25T09:58:29.148Z,1011.69
2022-11-25T09:59:29.164Z,1011.70
2022-11-25T10:00:29.131Z,1011.69
2022-11-25T10:01:29.136Z,1011.68
2022-11-25T10:02:29.267Z,1011.69
2022-11-25T10:03:29.203Z,1011.68
2022-11-25T10:04:29.132Z,1011.65
2022-11-25T10:05:29.144Z,1011.70
2022-11-25T10:06:29.178Z,1011.74
2022-11-25T10:07:29.128Z,1011.67
2022-11-25T10:08:29.165Z,1011.80
2022-11-25T10:09:29.134Z,1011.78
2022-11-25T10:10:29.124Z,1011.76
2022-11-25T10:11:29.119Z,1011.77
2022-11-25T10:12:29.106Z,1011.80
2022-11-25T10:13:29.127Z,1011.83
2022-11-25T10:14:29.137Z,1011.78
2022-11-25T10:15:29.103Z,1011.82
2022-11-25T10:16:29.217Z,1011.80
2022-11-25T10:17:29.113Z,1011.80
2022-11-25T10:18:29.097Z,1011.80
2022-11-25T10:19:29.110Z,1011.74
2022-11-25T10:20:29.096Z,1011.75
2022-11-25T10:21:29.112Z,1011.73
2022-11-25T10:22:29.110Z,1011.76
2022-11-25T10:23:29.116Z,1011.74
2022-11-25T10:24:29.099Z,1011.78
2022-11-25T10:25:29.104Z,1011.74
2022-11-25T10:26:29.096Z,1011.77
2022-11-25T10:27:29.083Z,1011.69
2022-11-25T10:28:29.102Z,1011.71
2022-11-25T10:29:29.116Z,1011.67
2022-11-25T10:30:29.101Z,1011.72
2022-11-25T10:31:29.119Z,1011.68
2022-11-25T10:32:29.092Z,1011.67
2022-11-25T10:33:29.082Z,1011.71
2022-11-25T10:34:29.083Z,1011.69
2022-11-25T10:35:29.092Z,1011.69
2022-11-25T10:36:29.084Z,1011.75
2022-11-25T10:37:29.113Z,1011.77
2022-11-25T10:38:29.077Z,1011.80
2022-11-25T10:39:29.065Z,1011.81
2022-11-25T10:40:29.079Z,1011.77
2022-11-25T10:41:29.070Z,1011.80
2022-11-25T10:42:29.083Z,1011.76
2022-11-25T10:43:31.921Z,1011.81
2022-11-25T10:44:29.067Z,1011.82
2022-11-25T10:45:29.079Z,1011.83
2022-11-25T10:46:49.600Z,1011.86
2022-11-25T10:47:29.219Z,1011.84
2022-11-25T10:48:29.056Z,1011.85
2022-11-25T10:49:29.057Z,1011.81
2022-11-25T10:50:29.051Z,1011.85
2022-11-25T10:51:29.083Z,1011.82
2022-11-25T10:52:29.058Z,1011.82
2022-11-25T10:53:29.060Z,1011.88
2022-11-25T10:54:29.043Z,1011.90
2022-11-25T10:55:29.052Z,1011.85
2022-11-25T10:56:29.052Z,1011.86
2022-11-25T10:57:29.040Z,1011.88
2022-11-25T10:58:29.077Z,1011.87
2022-11-25T10:59:29.079Z,1011.87
2022-11-25T11:00:29.052Z,1011.86
2022-11-25T11:01:29.165Z,1011.86
2022-11-25T11:02:29.069Z,1011.84
2022-11-25T11:03:29.927Z,1011.86
2022-11-25T11:04:29.037Z,1011.77
2022-11-25T11:05:29.036Z,1011.79
2022-11-25T11:06:29.029Z,1011.77
2022-11-25T11:07:29.080Z,1011.77
2022-11-25T11:08:29.014Z,1011.80
2022-11-25T11:09:29.034Z,1011.82
2022-11-25T11:10:29.024Z,1011.82
2022-11-25T11:11:29.022Z,1011.81
2022-11-25T11:12:29.012Z,1011.86
2022-11-25T11:13:29.017Z,1011.85
2022-11-25T11:14:29.029Z,1011.85
2022-11-25T11:15:29.013Z,1011.81
2022-11-25T11:16:29.053Z,1011.82
2022-11-25T11:17:33.253Z,1011.77
2022-11-25T11:18:29.029Z,1011.73
2022-11-25T11:19:29.007Z,1011.70
2022-11-25T11:20:29.004Z,1011.77
2022-11-25T11:21:28.998Z,1011.76
2022-11-25T11:22:29.001Z,1011.83
2022-11-25T11:23:29.005Z,1011.81
2022-11-25T11:24:28.988Z,1011.81
2022-11-25T11:25:29.009Z,1011.81
2022-11-25T11:26:29.005Z,1011.81
2022-11-25T11:27:28.985Z,1011.77
2022-11-25T11:28:29.000Z,1011.72
2022-11-25T11:29:28.978Z,1011.74
2022-11-25T11:30:28.994Z,1011.79
2022-11-25T11:31:29.124Z,1011.76
2022-11-25T11:32:29.021Z,1011.77
2022-11-25T11:33:28.987Z,1011.76
2022-11-25T11:34:28.991Z,1011.75
2022-11-25T11:35:28.991Z,1011.74
2022-11-25T11:36:28.984Z,1011.70
2022-11-25T11:37:28.971Z,1011.72
2022-11-25T11:38:28.976Z,1011.66
2022-11-25T11:39:28.973Z,1011.65
2022-11-25T11:40:28.982Z,1011.64
2022-11-25T11:41:28.968Z,1011.61
2022-11-25T11:42:28.973Z,1011.63
2022-11-25T11:43:28.956Z,1011.62
2022-11-25T11:44:28.967Z,1011.59
2022-11-25T11:45:28.995Z,1011.59
2022-11-25T11:46:29.007Z,1011.61
2022-11-25T11:47:28.967Z,1011.58
2022-11-25T11:48:28.947Z,1011.57
2022-11-25T11:49:30.687Z,1011.58
2022-11-25T11:50:28.949Z,1011.57
2022-11-25T11:51:28.969Z,1011.57
2022-11-25T11:52:28.951Z,1011.59
2022-11-25T11:53:28.963Z,1011.55
2022-11-25T11:54:28.951Z,1011.58
2022-11-25T11:55:28.965Z,1011.60
2022-11-25T11:56:36.478Z,1011.59
2022-11-25T11:57:28.940Z,1011.54
2022-11-25T11:58:28.937Z,1011.59
2022-11-25T11:59:28.937Z,1011.56
2022-11-25T12:00:28.940Z,1011.56
2022-11-25T12:01:28.951Z,1011.51
2022-11-25T12:02:28.966Z,1011.46
2022-11-25T12:03:29.003Z,1011.49
2022-11-25T12:04:28.929Z,1011.46
2022-11-25T12:05:28.919Z,1011.43
2022-11-25T12:06:28.929Z,1011.41
2022-11-25T12:07:28.963Z,1011.45
2022-11-25T12:08:28.926Z,1011.45
2022-11-25T12:09:28.914Z,1011.44
2022-11-25T12:10:28.916Z,1011.44
2022-11-25T12:11:28.925Z,1011.42
2022-11-25T12:12:28.928Z,1011.39
2022-11-25T12:13:28.920Z,1011.41
2022-11-25T12:14:28.907Z,1011.42
2022-11-25T12:15:28.920Z,1011.36
2022-11-25T12:16:28.981Z,1011.33
2022-11-25T12:17:28.928Z,1011.38
2022-11-25T12:18:28.907Z,1011.40
2022-11-25T12:19:28.903Z,1011.41
2022-11-25T12:20:28.904Z,1011.40
2022-11-25T12:21:28.900Z,1011.44
2022-11-25T12:22:28.904Z,1011.45
2022-11-25T12:23:28.902Z,1011.44
2022-11-25T12:24:28.897Z,1011.43
2022-11-25T12:25:28.897Z,1011.36
2022-11-25T12:26:28.885Z,1011.40
2022-11-25T12:27:28.893Z,1011.37
2022-11-25T12:28:28.904Z,1011.37
2022-11-25T12:29:28.887Z,1011.36
2022-11-25T12:30:28.886Z,1011.39
2022-11-25T12:31:28.932Z,1011.36
2022-11-25T12:32:28.880Z,1011.36
2022-11-25T12:33:28.876Z,1011.37
2022-11-25T12:34:28.898Z,1011.35
2022-11-25T12:35:28.864Z,1011.38
2022-11-25T12:36:28.865Z,1011.38
2022-11-25T12:37:28.857Z,1011.40
2022-11-25T12:38:28.863Z,1011.36
2022-11-25T12:39:28.868Z,1011.40
2022-11-25T12:40:28.861Z,1011.41
2022-11-25T12:41:28.861Z,1011.45
2022-11-25T12:42:28.859Z,1011.45
2022-11-25T12:43:28.857Z,1011.47
2022-11-25T12:44:28.858Z,1011.45
2022-11-25T12:45:28.884Z,1011.49
2022-11-25T12:46:28.857Z,1011.47
2022-11-25T12:47:28.837Z,1011.47
2022-11-25T12:48:28.840Z,1011.46
2022-11-25T12:49:28.852Z,1011.44
2022-11-25T12:50:28.862Z,1011.46
2022-11-25T12:51:28.837Z,1011.43
2022-11-25T12:52:28.830Z,1011.43
2022-11-25T12:53:28.821Z,1011.44
2022-11-25T12:54:28.846Z,1011.39
2022-11-25T12:55:28.837Z,1011.46
2022-11-25T12:56:28.847Z,1011.46
2022-11-25T12:57:28.831Z,1011.51
2022-11-25T12:58:28.839Z,1011.50
2022-11-25T12:59:28.847Z,1011.55
2022-11-25T13:00:44.296Z,1011.54
2022-11-25T13:01:28.855Z,1011.55
2022-11-25T13:02:28.891Z,1011.55
2022-11-25T13:03:28.807Z,1011.56
2022-11-25T13:04:28.827Z,1011.60
2022-11-25T13:05:44.189Z,1011.53
2022-11-25T13:06:28.825Z,1011.51
2022-11-25T13:07:28.875Z,1011.55
2022-11-25T13:08:28.820Z,1011.52
2022-11-25T13:09:28.807Z,1011.56
2022-11-25T13:10:28.816Z,1011.52
2022-11-25T13:11:29.090Z,1011.55
2022-11-25T13:12:29.078Z,1011.49
2022-11-25T13:13:29.221Z,1011.50
2022-11-25T13:14:29.176Z,1011.51
2022-11-25T13:15:29.263Z,1011.53
2022-11-25T13:16:29.365Z,1011.50
2022-11-25T13:17:28.998Z,1011.54
2022-11-25T13:18:28.773Z,1011.53
2022-11-25T13:19:28.791Z,1011.54
2022-11-25T13:20:28.775Z,1011.52
2022-11-25T13:21:28.783Z,1011.48
2022-11-25T13:22:28.767Z,1011.56
2022-11-25T13:23:28.794Z,1011.58
2022-11-25T13:24:28.875Z,1011.64
2022-11-25T13:25:28.774Z,1011.61
2022-11-25T13:26:28.780Z,1011.56
2022-11-25T13:27:28.766Z,1011.54
2022-11-25T13:28:28.766Z,1011.55
2022-11-25T13:29:28.765Z,1011.53
2022-11-25T13:30:28.760Z,1011.58
2022-11-25T13:31:28.826Z,1011.57
2022-11-25T13:32:28.763Z,1011.65
2022-11-25T13:33:28.759Z,1011.68
2022-11-25T13:34:28.742Z,1011.67
2022-11-25T13:35:28.755Z,1011.65
2022-11-25T13:36:28.750Z,1011.67
2022-11-25T13:37:33.527Z,1011.70
2022-11-25T13:38:28.746Z,1011.73
2022-11-25T13:39:28.748Z,1011.74
2022-11-25T13:40:28.741Z,1011.75
2022-11-25T13:41:28.742Z,1011.79
2022-11-25T13:42:28.752Z,1011.77
2022-11-25T13:43:28.734Z,1011.78
2022-11-25T13:44:28.721Z,1011.82
2022-11-25T13:45:28.760Z,1011.83
2022-11-25T13:46:28.733Z,1011.83
2022-11-25T13:47:28.790Z,1011.80
2022-11-25T13:48:28.728Z,1011.82
2022-11-25T13:49:28.723Z,1011.82
2022-11-25T13:50:41.892Z,1011.87
2022-11-25T13:51:28.721Z,1011.89
2022-11-25T13:52:28.707Z,1011.86
2022-11-25T13:53:28.719Z,1011.89
2022-11-25T13:54:28.732Z,1011.88
2022-11-25T13:55:28.699Z,1011.86
2022-11-25T13:56:28.696Z,1011.86
2022-11-25T13:57:28.881Z,1011.85
2022-11-25T13:58:28.712Z,1011.89
2022-11-25T13:59:28.704Z,1011.89
2022-11-25T14:00:28.724Z,1011.87
2022-11-25T14:01:30.461Z,1011.88
2022-11-25T14:02:28.840Z,1011.91
2022-11-25T14:03:28.725Z,1011.89
2022-11-25T14:04:28.718Z,1011.92
2022-11-25T14:05:28.691Z,1011.90
2022-11-25T14:06:28.702Z,1011.84
2022-11-25T14:07:28.865Z,1011.90
2022-11-25T14:08:28.694Z,1011.89
2022-11-25T14:09:28.679Z,1011.88
2022-11-25T14:10:28.700Z,1011.88
2022-11-25T14:11:28.675Z,1011.89
2022-11-25T14:12:28.683Z,1011.87
2022-11-25T14:13:28.682Z,1011.87
2022-11-25T14:14:37.083Z,1011.89
2022-11-25T14:15:28.682Z,1011.91
2022-11-25T14:16:28.770Z,1011.93
2022-11-25T14:17:28.687Z,1011.94
2022-11-25T14:19:00.440Z,1011.96
2022-11-25T14:19:50.696Z,1011.94
2022-11-25T14:20:28.646Z,1011.95
2022-11-25T14:21:28.685Z,1011.96
2022-11-25T14:22:28.684Z,1011.97
2022-11-25T14:23:28.660Z,1011.99
2022-11-25T14:24:28.645Z,1012.06
2022-11-25T14:25:28.663Z,1012.06
2022-11-25T14:26:48.600Z,1012.11
2022-11-25T14:27:28.713Z,1012.06
2022-11-25T14:28:28.645Z,1012.07
2022-11-25T14:29:28.645Z,1012.12
2022-11-25T14:30:28.687Z,1012.08
2022-11-25T14:31:28.684Z,1012.08
2022-11-25T14:32:28.635Z,1012.06
2022-11-25T14:33:28.631Z,1012.05
2022-11-25T14:34:28.627Z,1012.10
2022-11-25T14:35:28.624Z,1012.12
2022-11-25T14:36:28.622Z,1012.11
2022-11-25T14:37:28.637Z,1012.10
2022-11-25T14:38:28.616Z,1012.18
2022-11-25T14:39:28.618Z,1012.20
2022-11-25T14:40:28.619Z,1012.25
2022-11-25T14:41:28.613Z,1012.24
2022-11-25T14:42:28.615Z,1012.29
2022-11-25T14:43:28.630Z,1012.26
2022-11-25T14:44:28.603Z,1012.20
2022-11-25T14:45:28.640Z,1012.30
2022-11-25T14:46:28.608Z,1012.29
2022-11-25T14:47:28.589Z,1012.26
2022-11-25T14:48:28.588Z,1012.31
2022-11-25T14:49:48.815Z,1012.27
2022-11-25T14:50:35.849Z,1012.29
2022-11-25T14:51:28.583Z,1012.29
2022-11-25T14:52:28.596Z,1012.30
2022-11-25T14:53:28.585Z,1012.27
2022-11-25T14:54:28.594Z,1012.29
2022-11-25T14:55:28.587Z,1012.24
2022-11-25T14:56:28.576Z,1012.26
2022-11-25T14:57:28.640Z,1012.26
2022-11-25T14:58:28.581Z,1012.26
2022-11-25T14:59:28.578Z,1012.28
2022-11-25T15:00:28.572Z,1012.27
2022-11-25T15:01:28.562Z,1012.29
2022-11-25T15:02:28.584Z,1012.33
2022-11-25T15:03:28.595Z,1012.28
2022-11-25T15:04:28.611Z,1012.30
2022-11-25T15:05:28.565Z,1012.32
2022-11-25T15:06:29.531Z,1012.34
2022-11-25T15:07:31.259Z,1012.36
2022-11-25T15:08:28.558Z,1012.34
2022-11-25T15:09:28.560Z,1012.39
2022-11-25T15:10:28.543Z,1012.38
2022-11-25T15:11:28.534Z,1012.38
2022-11-25T15:12:28.534Z,1012.37
2022-11-25T15:13:28.544Z,1012.41
2022-11-25T15:14:28.531Z,1012.41
2022-11-25T15:15:28.541Z,1012.37
2022-11-25T15:16:28.622Z,1012.39
2022-11-25T15:17:28.559Z,1012.39
2022-11-25T15:18:28.528Z,1012.46
2022-11-25T15:19:33.407Z,1012.43
2022-11-25T15:20:28.538Z,1012.43
2022-11-25T15:21:28.532Z,1012.46
2022-11-25T15:22:28.516Z,1012.47
2022-11-25T15:23:28.560Z,1012.47
2022-11-25T15:24:28.536Z,1012.50
2022-11-25T15:25:28.515Z,1012.53
2022-11-25T15:26:28.521Z,1012.49
2022-11-25T15:27:28.560Z,1012.53
2022-11-25T15:28:28.521Z,1012.47
2022-11-25T15:29:28.509Z,1012.55
2022-11-25T15:30:28.523Z,1012.53